sensor_id;sensor_type;location;lat;lon;timestamp;P1;durP1;ratioP1;P2;durP2;ratioP2
15931;SDS011;8065;49.520;11.284;2023-05-07T00:01:02;2.43;;;2.33;;
15931;SDS011;8065;49.520;11.284;2023-05-07T00:03:30;3.70;;;2.60;;
15931;SDS011;8065;49.520;11.284;2023-05-07T00:05:57;2.90;;;2.60;;
15931;SDS011;8065;49.520;11.284;2023-05-07T00:08:23;3.47;;;2.33;;
15931;SDS011;8065;49.520;11.284;2023-05-07T00:10:50;3.60;;;2.60;;
15931;SDS011;8065;49.520;11.284;2023-05-07T00:13:16;2.73;;;2.40;;
15931;SDS011;8065;49.520;11.284;2023-05-07T00:15:43;4.90;;;2.60;;
15931;SDS011;8065;49.520;11.284;2023-05-07T00:18:10;2.53;;;2.30;;
15931;SDS011;8065;49.520;11.284;2023-05-07T00:20:37;3.60;;;2.40;;
15931;SDS011;8065;49.520;11.284;2023-05-07T00:23:03;3.53;;;2.73;;
15931;SDS011;8065;49.520;11.284;2023-05-07T00:25:30;2.80;;;2.60;;
15931;SDS011;8065;49.520;11.284;2023-05-07T00:27:56;2.53;;;2.37;;
15931;SDS011;8065;49.520;11.284;2023-05-07T00:30:27;2.83;;;2.63;;
15931;SDS011;8065;49.520;11.284;2023-05-07T00:32:54;2.93;;;2.70;;
15931;SDS011;8065;49.520;11.284;2023-05-07T00:35:22;3.00;;;2.70;;
15931;SDS011;8065;49.520;11.284;2023-05-07T00:37:48;2.97;;;2.77;;
15931;SDS011;8065;49.520;11.284;2023-05-07T00:40:15;3.03;;;2.80;;
15931;SDS011;8065;49.520;11.284;2023-05-07T00:42:41;3.13;;;2.37;;
15931;SDS011;8065;49.520;11.284;2023-05-07T00:45:12;2.70;;;2.50;;
15931;SDS011;8065;49.520;11.284;2023-05-07T00:47:38;3.37;;;2.70;;
15931;SDS011;8065;49.520;11.284;2023-05-07T00:50:05;2.67;;;2.47;;
15931;SDS011;8065;49.520;11.284;2023-05-07T00:52:36;3.53;;;2.60;;
15931;SDS011;8065;49.520;11.284;2023-05-07T00:55:04;2.70;;;2.50;;
15931;SDS011;8065;49.520;11.284;2023-05-07T00:57:32;2.73;;;2.53;;
15931;SDS011;8065;49.520;11.284;2023-05-07T01:00:02;3.13;;;2.90;;
15931;SDS011;8065;49.520;11.284;2023-05-07T01:02:30;6.37;;;2.80;;
15931;SDS011;8065;49.520;11.284;2023-05-07T01:04:56;3.07;;;2.60;;
15931;SDS011;8065;49.520;11.284;2023-05-07T01:07:23;2.67;;;2.47;;
15931;SDS011;8065;49.520;11.284;2023-05-07T01:09:51;2.73;;;2.53;;
15931;SDS011;8065;49.520;11.284;2023-05-07T01:12:18;3.17;;;2.80;;
15931;SDS011;8065;49.520;11.284;2023-05-07T01:14:44;2.90;;;2.70;;
15931;SDS011;8065;49.520;11.284;2023-05-07T01:17:11;3.20;;;2.90;;
15931;SDS011;8065;49.520;11.284;2023-05-07T01:19:37;3.83;;;3.40;;
15931;SDS011;8065;49.520;11.284;2023-05-07T01:22:07;3.90;;;3.13;;
15931;SDS011;8065;49.520;11.284;2023-05-07T01:24:37;3.90;;;3.37;;
15931;SDS011;8065;49.520;11.284;2023-05-07T01:27:04;3.40;;;3.20;;
15931;SDS011;8065;49.520;11.284;2023-05-07T01:29:30;3.53;;;3.23;;
15931;SDS011;8065;49.520;11.284;2023-05-07T01:31:57;3.50;;;3.20;;
15931;SDS011;8065;49.520;11.284;2023-05-07T01:34:25;4.10;;;3.70;;
15931;SDS011;8065;49.520;11.284;2023-05-07T01:36:56;3.57;;;3.27;;
15931;SDS011;8065;49.520;11.284;2023-05-07T01:39:24;4.83;;;3.90;;
15931;SDS011;8065;49.520;11.284;2023-05-07T01:41:53;4.70;;;3.23;;
15931;SDS011;8065;49.520;11.284;2023-05-07T01:44:20;4.77;;;3.83;;
15931;SDS011;8065;49.520;11.284;2023-05-07T01:46:47;4.17;;;3.63;;
15931;SDS011;8065;49.520;11.284;2023-05-07T01:49:15;3.93;;;3.63;;
15931;SDS011;8065;49.520;11.284;2023-05-07T01:51:41;4.67;;;3.90;;
15931;SDS011;8065;49.520;11.284;2023-05-07T01:54:08;5.67;;;4.10;;
15931;SDS011;8065;49.520;11.284;2023-05-07T01:56:35;5.57;;;3.87;;
15931;SDS011;8065;49.520;11.284;2023-05-07T01:59:03;3.97;;;3.67;;
15931;SDS011;8065;49.520;11.284;2023-05-07T02:01:30;4.23;;;3.80;;
15931;SDS011;8065;49.520;11.284;2023-05-07T02:03:56;7.33;;;4.40;;
15931;SDS011;8065;49.520;11.284;2023-05-07T02:06:23;4.30;;;3.90;;
15931;SDS011;8065;49.520;11.284;2023-05-07T02:08:49;5.20;;;4.70;;
15931;SDS011;8065;49.520;11.284;2023-05-07T02:11:16;5.53;;;4.00;;
15931;SDS011;8065;49.520;11.284;2023-05-07T02:13:42;5.13;;;4.50;;
15931;SDS011;8065;49.520;11.284;2023-05-07T02:16:10;4.80;;;4.30;;
15931;SDS011;8065;49.520;11.284;2023-05-07T02:18:39;4.90;;;4.50;;
15931;SDS011;8065;49.520;11.284;2023-05-07T02:21:05;5.13;;;4.70;;
15931;SDS011;8065;49.520;11.284;2023-05-07T02:23:32;5.10;;;4.70;;
15931;SDS011;8065;49.520;11.284;2023-05-07T02:25:58;4.73;;;4.30;;
15931;SDS011;8065;49.520;11.284;2023-05-07T02:28:25;4.70;;;4.30;;
15931;SDS011;8065;49.520;11.284;2023-05-07T02:30:51;5.23;;;4.83;;
15931;SDS011;8065;49.520;11.284;2023-05-07T02:33:20;5.00;;;4.50;;
15931;SDS011;8065;49.520;11.284;2023-05-07T02:35:46;5.10;;;4.40;;
15931;SDS011;8065;49.520;11.284;2023-05-07T02:38:12;6.70;;;5.33;;
15931;SDS011;8065;49.520;11.284;2023-05-07T02:40:39;5.77;;;5.17;;
15931;SDS011;8065;49.520;11.284;2023-05-07T02:43:05;5.37;;;4.87;;
15931;SDS011;8065;49.520;11.284;2023-05-07T02:45:32;5.27;;;4.87;;
15931;SDS011;8065;49.520;11.284;2023-05-07T02:47:58;6.13;;;5.53;;
15931;SDS011;8065;49.520;11.284;2023-05-07T02:50:26;5.83;;;5.33;;
15931;SDS011;8065;49.520;11.284;2023-05-07T02:52:53;5.67;;;5.17;;
15931;SDS011;8065;49.520;11.284;2023-05-07T02:55:19;5.97;;;5.37;;
15931;SDS011;8065;49.520;11.284;2023-05-07T02:57:45;6.43;;;5.83;;
15931;SDS011;8065;49.520;11.284;2023-05-07T03:00:13;6.30;;;5.77;;
15931;SDS011;8065;49.520;11.284;2023-05-07T03:02:40;6.50;;;5.47;;
15931;SDS011;8065;49.520;11.284;2023-05-07T03:05:07;6.20;;;5.63;;
15931;SDS011;8065;49.520;11.284;2023-05-07T03:07:35;6.17;;;5.57;;
15931;SDS011;8065;49.520;11.284;2023-05-07T03:10:02;7.00;;;6.30;;
15931;SDS011;8065;49.520;11.284;2023-05-07T03:12:29;5.70;;;5.23;;
15931;SDS011;8065;49.520;11.284;2023-05-07T03:14:56;6.60;;;6.07;;
15931;SDS011;8065;49.520;11.284;2023-05-07T03:17:22;6.37;;;5.73;;
15931;SDS011;8065;49.520;11.284;2023-05-07T03:19:49;6.40;;;5.60;;
15931;SDS011;8065;49.520;11.284;2023-05-07T03:22:15;8.17;;;6.43;;
15931;SDS011;8065;49.520;11.284;2023-05-07T03:24:43;7.60;;;6.77;;
15931;SDS011;8065;49.520;11.284;2023-05-07T03:27:09;7.60;;;6.83;;
15931;SDS011;8065;49.520;11.284;2023-05-07T03:29:36;7.63;;;7.00;;
15931;SDS011;8065;49.520;11.284;2023-05-07T03:32:02;8.47;;;7.00;;
15931;SDS011;8065;49.520;11.284;2023-05-07T03:34:29;8.23;;;6.70;;
15931;SDS011;8065;49.520;11.284;2023-05-07T03:36:56;8.33;;;6.93;;
15931;SDS011;8065;49.520;11.284;2023-05-07T03:39:22;7.73;;;7.03;;
15931;SDS011;8065;49.520;11.284;2023-05-07T03:41:50;8.47;;;7.53;;
15931;SDS011;8065;49.520;11.284;2023-05-07T03:44:16;8.03;;;7.23;;
15931;SDS011;8065;49.520;11.284;2023-05-07T03:46:43;6.97;;;6.33;;
15931;SDS011;8065;49.520;11.284;2023-05-07T03:49:09;7.90;;;7.03;;
15931;SDS011;8065;49.520;11.284;2023-05-07T03:51:35;7.77;;;7.07;;
15931;SDS011;8065;49.520;11.284;2023-05-07T03:54:02;7.30;;;6.70;;
15931;SDS011;8065;49.520;11.284;2023-05-07T03:56:28;9.03;;;8.13;;
15931;SDS011;8065;49.520;11.284;2023-05-07T03:58:57;7.67;;;6.97;;
15931;SDS011;8065;49.520;11.284;2023-05-07T04:01:23;11.03;;;7.93;;
15931;SDS011;8065;49.520;11.284;2023-05-07T04:03:50;8.73;;;7.93;;
15931;SDS011;8065;49.520;11.284;2023-05-07T04:06:16;8.27;;;7.47;;
15931;SDS011;8065;49.520;11.284;2023-05-07T04:08:43;11.33;;;8.43;;
15931;SDS011;8065;49.520;11.284;2023-05-07T04:11:09;8.10;;;7.30;;
15931;SDS011;8065;49.520;11.284;2023-05-07T04:13:36;8.27;;;7.37;;
15931;SDS011;8065;49.520;11.284;2023-05-07T04:16:04;9.20;;;8.30;;
15931;SDS011;8065;49.520;11.284;2023-05-07T04:18:31;8.47;;;7.53;;
15931;SDS011;8065;49.520;11.284;2023-05-07T04:20:58;8.37;;;7.50;;
15931;SDS011;8065;49.520;11.284;2023-05-07T04:23:24;9.50;;;8.33;;
15931;SDS011;8065;49.520;11.284;2023-05-07T04:25:50;9.03;;;7.83;;
15931;SDS011;8065;49.520;11.284;2023-05-07T04:28:17;8.70;;;7.80;;
15931;SDS011;8065;49.520;11.284;2023-05-07T04:30:44;9.10;;;8.20;;
15931;SDS011;8065;49.520;11.284;2023-05-07T04:33:11;9.07;;;8.17;;
15931;SDS011;8065;49.520;11.284;2023-05-07T04:35:41;8.80;;;7.80;;
15931;SDS011;8065;49.520;11.284;2023-05-07T04:38:07;9.43;;;8.53;;
15931;SDS011;8065;49.520;11.284;2023-05-07T04:40:35;9.03;;;8.23;;
15931;SDS011;8065;49.520;11.284;2023-05-07T04:43:01;10.47;;;7.67;;
15931;SDS011;8065;49.520;11.284;2023-05-07T04:45:28;9.73;;;8.70;;
15931;SDS011;8065;49.520;11.284;2023-05-07T04:47:54;8.70;;;7.80;;
15931;SDS011;8065;49.520;11.284;2023-05-07T04:50:22;8.83;;;7.93;;
15931;SDS011;8065;49.520;11.284;2023-05-07T04:52:49;7.90;;;7.10;;
15931;SDS011;8065;49.520;11.284;2023-05-07T04:55:16;8.47;;;7.67;;
15931;SDS011;8065;49.520;11.284;2023-05-07T04:57:42;9.23;;;8.33;;
15931;SDS011;8065;49.520;11.284;2023-05-07T05:00:09;10.80;;;8.57;;
15931;SDS011;8065;49.520;11.284;2023-05-07T05:02:39;10.13;;;9.13;;
15931;SDS011;8065;49.520;11.284;2023-05-07T05:05:05;9.77;;;8.73;;
15931;SDS011;8065;49.520;11.284;2023-05-07T05:07:34;10.27;;;8.10;;
15931;SDS011;8065;49.520;11.284;2023-05-07T05:10:01;9.60;;;8.60;;
15931;SDS011;8065;49.520;11.284;2023-05-07T05:12:28;9.67;;;8.40;;
15931;SDS011;8065;49.520;11.284;2023-05-07T05:14:55;9.63;;;8.63;;
15931;SDS011;8065;49.520;11.284;2023-05-07T05:17:21;10.17;;;8.77;;
15931;SDS011;8065;49.520;11.284;2023-05-07T05:19:48;9.17;;;8.30;;
15931;SDS011;8065;49.520;11.284;2023-05-07T05:22:14;10.47;;;8.77;;
15931;SDS011;8065;49.520;11.284;2023-05-07T05:24:42;9.37;;;8.47;;
15931;SDS011;8065;49.520;11.284;2023-05-07T05:27:09;9.47;;;8.53;;
15931;SDS011;8065;49.520;11.284;2023-05-07T05:29:35;9.00;;;8.10;;
15931;SDS011;8065;49.520;11.284;2023-05-07T05:32:02;9.13;;;8.23;;
15931;SDS011;8065;49.520;11.284;2023-05-07T05:34:28;9.47;;;8.03;;
15931;SDS011;8065;49.520;11.284;2023-05-07T05:36:54;9.00;;;8.20;;
15931;SDS011;8065;49.520;11.284;2023-05-07T05:39:21;9.93;;;8.83;;
15931;SDS011;8065;49.520;11.284;2023-05-07T05:41:49;10.10;;;9.10;;
15931;SDS011;8065;49.520;11.284;2023-05-07T05:44:16;10.60;;;8.20;;
15931;SDS011;8065;49.520;11.284;2023-05-07T05:46:42;9.83;;;8.83;;
15931;SDS011;8065;49.520;11.284;2023-05-07T05:49:08;10.73;;;9.03;;
15931;SDS011;8065;49.520;11.284;2023-05-07T05:51:35;9.30;;;8.40;;
15931;SDS011;8065;49.520;11.284;2023-05-07T05:54:01;11.47;;;8.30;;
15931;SDS011;8065;49.520;11.284;2023-05-07T05:56:28;9.73;;;8.90;;
15931;SDS011;8065;49.520;11.284;2023-05-07T05:58:56;10.10;;;8.53;;
15931;SDS011;8065;49.520;11.284;2023-05-07T06:01:23;10.30;;;9.17;;
15931;SDS011;8065;49.520;11.284;2023-05-07T06:03:49;9.27;;;8.37;;
15931;SDS011;8065;49.520;11.284;2023-05-07T06:06:16;9.17;;;8.27;;
15931;SDS011;8065;49.520;11.284;2023-05-07T06:08:42;9.30;;;8.27;;
15931;SDS011;8065;49.520;11.284;2023-05-07T06:11:09;9.17;;;8.03;;
15931;SDS011;8065;49.520;11.284;2023-05-07T06:13:35;10.30;;;8.23;;
15931;SDS011;8065;49.520;11.284;2023-05-07T06:16:03;9.40;;;8.43;;
15931;SDS011;8065;49.520;11.284;2023-05-07T06:18:30;11.43;;;8.13;;
15931;SDS011;8065;49.520;11.284;2023-05-07T06:20:57;9.13;;;8.23;;
15931;SDS011;8065;49.520;11.284;2023-05-07T06:23:23;9.60;;;8.70;;
15931;SDS011;8065;49.520;11.284;2023-05-07T06:25:51;9.27;;;8.27;;
15931;SDS011;8065;49.520;11.284;2023-05-07T06:28:17;9.40;;;8.50;;
15931;SDS011;8065;49.520;11.284;2023-05-07T06:30:44;8.47;;;7.67;;
15931;SDS011;8065;49.520;11.284;2023-05-07T06:33:12;8.73;;;7.93;;
15931;SDS011;8065;49.520;11.284;2023-05-07T06:35:38;8.97;;;8.07;;
15931;SDS011;8065;49.520;11.284;2023-05-07T06:38:04;8.73;;;7.93;;
15931;SDS011;8065;49.520;11.284;2023-05-07T06:40:31;9.20;;;8.30;;
15931;SDS011;8065;49.520;11.284;2023-05-07T06:42:57;10.03;;;8.53;;
15931;SDS011;8065;49.520;11.284;2023-05-07T06:45:24;8.90;;;8.00;;
15931;SDS011;8065;49.520;11.284;2023-05-07T06:47:50;9.03;;;7.97;;
15931;SDS011;8065;49.520;11.284;2023-05-07T06:50:18;9.47;;;8.40;;
15931;SDS011;8065;49.520;11.284;2023-05-07T06:52:45;9.33;;;8.17;;
15931;SDS011;8065;49.520;11.284;2023-05-07T06:55:11;8.60;;;7.70;;
15931;SDS011;8065;49.520;11.284;2023-05-07T06:57:38;8.40;;;7.60;;
15931;SDS011;8065;49.520;11.284;2023-05-07T07:00:05;9.27;;;8.30;;
15931;SDS011;8065;49.520;11.284;2023-05-07T07:02:33;10.30;;;8.43;;
15931;SDS011;8065;49.520;11.284;2023-05-07T07:05:00;8.60;;;7.70;;
15931;SDS011;8065;49.520;11.284;2023-05-07T07:07:28;10.27;;;8.00;;
15931;SDS011;8065;49.520;11.284;2023-05-07T07:09:55;8.83;;;8.00;;
15931;SDS011;8065;49.520;11.284;2023-05-07T07:12:21;8.87;;;7.97;;
15931;SDS011;8065;49.520;11.284;2023-05-07T07:14:49;9.20;;;7.93;;
15931;SDS011;8065;49.520;11.284;2023-05-07T07:17:16;9.00;;;8.07;;
15931;SDS011;8065;49.520;11.284;2023-05-07T07:19:42;8.87;;;7.33;;
15931;SDS011;8065;49.520;11.284;2023-05-07T07:22:09;9.20;;;7.40;;
15931;SDS011;8065;49.520;11.284;2023-05-07T07:24:37;7.73;;;7.03;;
15931;SDS011;8065;49.520;11.284;2023-05-07T07:27:03;9.43;;;8.10;;
15931;SDS011;8065;49.520;11.284;2023-05-07T07:29:30;8.70;;;7.90;;
15931;SDS011;8065;49.520;11.284;2023-05-07T07:31:56;9.00;;;8.17;;
15931;SDS011;8065;49.520;11.284;2023-05-07T07:34:23;8.93;;;8.03;;
15931;SDS011;8065;49.520;11.284;2023-05-07T07:36:49;8.57;;;7.57;;
15931;SDS011;8065;49.520;11.284;2023-05-07T07:39:16;8.60;;;7.80;;
15931;SDS011;8065;49.520;11.284;2023-05-07T07:41:44;8.70;;;7.80;;
15931;SDS011;8065;49.520;11.284;2023-05-07T07:44:10;8.90;;;7.83;;
15931;SDS011;8065;49.520;11.284;2023-05-07T07:46:38;9.13;;;7.87;;
15931;SDS011;8065;49.520;11.284;2023-05-07T07:49:04;8.90;;;7.33;;
15931;SDS011;8065;49.520;11.284;2023-05-07T07:51:31;9.23;;;8.37;;
15931;SDS011;8065;49.520;11.284;2023-05-07T07:53:57;8.90;;;8.00;;
15931;SDS011;8065;49.520;11.284;2023-05-07T07:56:23;8.10;;;7.33;;
15931;SDS011;8065;49.520;11.284;2023-05-07T07:58:51;9.70;;;7.97;;
15931;SDS011;8065;49.520;11.284;2023-05-07T08:01:18;8.07;;;7.37;;
15931;SDS011;8065;49.520;11.284;2023-05-07T08:03:44;8.07;;;7.20;;
15931;SDS011;8065;49.520;11.284;2023-05-07T08:06:11;7.87;;;7.07;;
15931;SDS011;8065;49.520;11.284;2023-05-07T08:08:37;8.20;;;7.40;;
15931;SDS011;8065;49.520;11.284;2023-05-07T08:11:04;7.83;;;7.13;;
15931;SDS011;8065;49.520;11.284;2023-05-07T08:13:30;8.30;;;7.53;;
15931;SDS011;8065;49.520;11.284;2023-05-07T08:15:58;8.23;;;7.53;;
15931;SDS011;8065;49.520;11.284;2023-05-07T08:18:26;9.27;;;8.13;;
15931;SDS011;8065;49.520;11.284;2023-05-07T08:20:53;8.00;;;7.20;;
15931;SDS011;8065;49.520;11.284;2023-05-07T08:23:20;8.17;;;7.40;;
15931;SDS011;8065;49.520;11.284;2023-05-07T08:25:46;7.60;;;6.90;;
15931;SDS011;8065;49.520;11.284;2023-05-07T08:28:13;7.80;;;7.10;;
15931;SDS011;8065;49.520;11.284;2023-05-07T08:30:39;7.73;;;7.03;;
15931;SDS011;8065;49.520;11.284;2023-05-07T08:33:08;8.10;;;7.40;;
15931;SDS011;8065;49.520;11.284;2023-05-07T08:35:34;8.97;;;7.13;;
15931;SDS011;8065;49.520;11.284;2023-05-07T08:38:01;10.57;;;7.37;;
15931;SDS011;8065;49.520;11.284;2023-05-07T08:40:27;7.77;;;6.97;;
15931;SDS011;8065;49.520;11.284;2023-05-07T08:42:55;8.23;;;7.43;;
15931;SDS011;8065;49.520;11.284;2023-05-07T08:45:23;8.70;;;7.80;;
15931;SDS011;8065;49.520;11.284;2023-05-07T08:47:51;8.03;;;7.23;;
15931;SDS011;8065;49.520;11.284;2023-05-07T08:50:22;7.77;;;6.97;;
15931;SDS011;8065;49.520;11.284;2023-05-07T08:52:49;7.07;;;6.37;;
15931;SDS011;8065;49.520;11.284;2023-05-07T08:55:15;7.40;;;6.73;;
15931;SDS011;8065;49.520;11.284;2023-05-07T08:57:43;8.47;;;7.43;;
15931;SDS011;8065;49.520;11.284;2023-05-07T09:00:10;8.50;;;6.90;;
15931;SDS011;8065;49.520;11.284;2023-05-07T09:02:37;7.37;;;6.40;;
15931;SDS011;8065;49.520;11.284;2023-05-07T09:05:04;7.90;;;7.10;;
15931;SDS011;8065;49.520;11.284;2023-05-07T09:07:32;6.73;;;6.20;;
15931;SDS011;8065;49.520;11.284;2023-05-07T09:10:00;7.70;;;6.90;;
15931;SDS011;8065;49.520;11.284;2023-05-07T09:12:28;7.53;;;6.63;;
15931;SDS011;8065;49.520;11.284;2023-05-07T09:14:55;8.03;;;6.73;;
15931;SDS011;8065;49.520;11.284;2023-05-07T09:17:21;7.90;;;7.00;;
15931;SDS011;8065;49.520;11.284;2023-05-07T09:19:47;7.70;;;7.00;;
15931;SDS011;8065;49.520;11.284;2023-05-07T09:22:14;8.33;;;6.83;;
15931;SDS011;8065;49.520;11.284;2023-05-07T09:24:42;7.20;;;6.60;;
15931;SDS011;8065;49.520;11.284;2023-05-07T09:27:13;7.70;;;7.00;;
15931;SDS011;8065;49.520;11.284;2023-05-07T09:29:40;6.87;;;6.30;;
15931;SDS011;8065;49.520;11.284;2023-05-07T09:32:07;6.27;;;5.63;;
15931;SDS011;8065;49.520;11.284;2023-05-07T09:34:34;9.80;;;5.70;;
15931;SDS011;8065;49.520;11.284;2023-05-07T09:37:01;7.87;;;6.13;;
15931;SDS011;8065;49.520;11.284;2023-05-07T09:39:38;6.63;;;6.03;;
15931;SDS011;8065;49.520;11.284;2023-05-07T09:42:06;6.50;;;5.90;;
15931;SDS011;8065;49.520;11.284;2023-05-07T09:44:33;7.30;;;6.20;;
15931;SDS011;8065;49.520;11.284;2023-05-07T09:47:00;6.47;;;5.87;;
15931;SDS011;8065;49.520;11.284;2023-05-07T09:49:29;9.53;;;6.30;;
15931;SDS011;8065;49.520;11.284;2023-05-07T09:51:56;6.40;;;5.80;;
15931;SDS011;8065;49.520;11.284;2023-05-07T09:54:24;6.80;;;6.10;;
15931;SDS011;8065;49.520;11.284;2023-05-07T09:56:52;5.80;;;5.30;;
15931;SDS011;8065;49.520;11.284;2023-05-07T09:59:20;7.27;;;6.20;;
15931;SDS011;8065;49.520;11.284;2023-05-07T10:01:48;6.33;;;5.73;;
15931;SDS011;8065;49.520;11.284;2023-05-07T10:04:15;5.77;;;5.07;;
15931;SDS011;8065;49.520;11.284;2023-05-07T10:06:43;5.33;;;4.83;;
15931;SDS011;8065;49.520;11.284;2023-05-07T10:09:10;7.70;;;5.20;;
15931;SDS011;8065;49.520;11.284;2023-05-07T10:11:38;5.50;;;5.00;;
15931;SDS011;8065;49.520;11.284;2023-05-07T10:14:06;5.67;;;5.13;;
15931;SDS011;8065;49.520;11.284;2023-05-07T10:16:35;5.70;;;5.20;;
15931;SDS011;8065;49.520;11.284;2023-05-07T10:19:03;6.03;;;5.43;;
15931;SDS011;8065;49.520;11.284;2023-05-07T10:21:30;6.57;;;5.90;;
15931;SDS011;8065;49.520;11.284;2023-05-07T10:23:58;5.90;;;4.90;;
15931;SDS011;8065;49.520;11.284;2023-05-07T10:26:27;5.67;;;4.97;;
15931;SDS011;8065;49.520;11.284;2023-05-07T10:28:56;5.10;;;4.60;;
15931;SDS011;8065;49.520;11.284;2023-05-07T10:31:48;4.90;;;4.10;;
15931;SDS011;8065;49.520;11.284;2023-05-07T10:34:22;3.50;;;3.30;;
15931;SDS011;8065;49.520;11.284;2023-05-07T10:36:52;5.07;;;4.10;;
15931;SDS011;8065;49.520;11.284;2023-05-07T10:39:21;4.47;;;3.53;;
15931;SDS011;8065;49.520;11.284;2023-05-07T10:41:48;3.87;;;3.57;;
15931;SDS011;8065;49.520;11.284;2023-05-07T10:44:24;5.33;;;4.83;;
15931;SDS011;8065;49.520;11.284;2023-05-07T10:47:04;5.13;;;4.73;;
15931;SDS011;8065;49.520;11.284;2023-05-07T10:49:34;5.53;;;4.27;;
15931;SDS011;8065;49.520;11.284;2023-05-07T10:52:16;4.43;;;4.03;;
15931;SDS011;8065;49.520;11.284;2023-05-07T10:54:44;4.70;;;4.30;;
15931;SDS011;8065;49.520;11.284;2023-05-07T11:00:04;4.47;;;3.80;;
15931;SDS011;8065;49.520;11.284;2023-05-07T11:03:11;3.60;;;3.30;;
15931;SDS011;8065;49.520;11.284;2023-05-07T11:05:37;6.63;;;3.77;;
15931;SDS011;8065;49.520;11.284;2023-05-07T11:08:04;4.00;;;3.70;;
15931;SDS011;8065;49.520;11.284;2023-05-07T11:10:50;3.93;;;3.50;;
15931;SDS011;8065;49.520;11.284;2023-05-07T11:13:18;3.60;;;3.30;;
15931;SDS011;8065;49.520;11.284;2023-05-07T11:16:04;4.13;;;3.73;;
15931;SDS011;8065;49.520;11.284;2023-05-07T11:18:47;4.03;;;3.73;;
15931;SDS011;8065;49.520;11.284;2023-05-07T11:21:28;3.73;;;3.53;;
15931;SDS011;8065;49.520;11.284;2023-05-07T11:23:58;3.43;;;3.00;;
15931;SDS011;8065;49.520;11.284;2023-05-07T11:26:26;3.50;;;3.20;;
15931;SDS011;8065;49.520;11.284;2023-05-07T11:28:54;3.40;;;3.20;;
15931;SDS011;8065;49.520;11.284;2023-05-07T11:31:22;3.90;;;2.97;;
15931;SDS011;8065;49.520;11.284;2023-05-07T11:33:52;2.53;;;2.40;;
15931;SDS011;8065;49.520;11.284;2023-05-07T11:36:20;3.13;;;2.83;;
15931;SDS011;8065;49.520;11.284;2023-05-07T11:38:48;5.13;;;3.20;;
15931;SDS011;8065;49.520;11.284;2023-05-07T11:41:15;2.90;;;2.70;;
15931;SDS011;8065;49.520;11.284;2023-05-07T11:43:55;3.07;;;2.83;;
15931;SDS011;8065;49.520;11.284;2023-05-07T11:46:22;3.50;;;3.10;;
15931;SDS011;8065;49.520;11.284;2023-05-07T11:48:49;2.00;;;1.90;;
15931;SDS011;8065;49.520;11.284;2023-05-07T11:51:20;4.03;;;2.40;;
15931;SDS011;8065;49.520;11.284;2023-05-07T11:53:47;2.87;;;2.67;;
15931;SDS011;8065;49.520;11.284;2023-05-07T11:56:15;3.30;;;3.00;;
15931;SDS011;8065;49.520;11.284;2023-05-07T11:58:43;3.13;;;2.73;;
15931;SDS011;8065;49.520;11.284;2023-05-07T12:01:11;2.37;;;2.17;;
15931;SDS011;8065;49.520;11.284;2023-05-07T12:03:40;4.83;;;2.60;;
15931;SDS011;8065;49.520;11.284;2023-05-07T12:06:08;2.10;;;1.90;;
15931;SDS011;8065;49.520;11.284;2023-05-07T12:08:37;3.47;;;2.10;;
15931;SDS011;8065;49.520;11.284;2023-05-07T12:11:06;2.80;;;2.50;;
15931;SDS011;8065;49.520;11.284;2023-05-07T12:13:34;3.27;;;2.97;;
15931;SDS011;8065;49.520;11.284;2023-05-07T12:16:01;3.73;;;3.03;;
15931;SDS011;8065;49.520;11.284;2023-05-07T12:18:29;3.17;;;2.90;;
15931;SDS011;8065;49.520;11.284;2023-05-07T12:20:56;3.87;;;3.57;;
15931;SDS011;8065;49.520;11.284;2023-05-07T12:23:23;3.93;;;3.63;;
15931;SDS011;8065;49.520;11.284;2023-05-07T12:25:51;4.13;;;3.77;;
15931;SDS011;8065;49.520;11.284;2023-05-07T12:28:17;5.00;;;3.60;;
15931;SDS011;8065;49.520;11.284;2023-05-07T12:30:45;3.80;;;3.30;;
15931;SDS011;8065;49.520;11.284;2023-05-07T12:33:15;4.10;;;3.80;;
15931;SDS011;8065;49.520;11.284;2023-05-07T12:35:43;4.03;;;3.40;;
15931;SDS011;8065;49.520;11.284;2023-05-07T12:38:10;3.87;;;3.60;;
15931;SDS011;8065;49.520;11.284;2023-05-07T12:40:38;4.37;;;3.60;;
15931;SDS011;8065;49.520;11.284;2023-05-07T12:43:07;3.60;;;3.30;;
15931;SDS011;8065;49.520;11.284;2023-05-07T12:45:40;3.63;;;3.30;;
15931;SDS011;8065;49.520;11.284;2023-05-07T12:48:09;3.83;;;3.53;;
15931;SDS011;8065;49.520;11.284;2023-05-07T12:50:36;4.07;;;3.40;;
15931;SDS011;8065;49.520;11.284;2023-05-07T12:53:02;3.53;;;3.20;;
15931;SDS011;8065;49.520;11.284;2023-05-07T12:55:30;3.80;;;3.40;;
15931;SDS011;8065;49.520;11.284;2023-05-07T12:58:00;3.47;;;3.23;;
15931;SDS011;8065;49.520;11.284;2023-05-07T13:00:37;4.07;;;3.63;;
15931;SDS011;8065;49.520;11.284;2023-05-07T13:03:04;5.03;;;3.80;;
15931;SDS011;8065;49.520;11.284;2023-05-07T13:05:31;3.83;;;3.53;;
15931;SDS011;8065;49.520;11.284;2023-05-07T13:07:58;3.73;;;3.43;;
15931;SDS011;8065;49.520;11.284;2023-05-07T13:10:25;3.80;;;3.50;;
15931;SDS011;8065;49.520;11.284;2023-05-07T13:12:51;3.67;;;3.37;;
15931;SDS011;8065;49.520;11.284;2023-05-07T13:15:18;4.40;;;3.40;;
15931;SDS011;8065;49.520;11.284;2023-05-07T13:17:46;4.23;;;3.13;;
15931;SDS011;8065;49.520;11.284;2023-05-07T13:20:12;3.93;;;3.63;;
15931;SDS011;8065;49.520;11.284;2023-05-07T13:22:39;4.37;;;3.67;;
15931;SDS011;8065;49.520;11.284;2023-05-07T13:25:06;3.80;;;3.50;;
15931;SDS011;8065;49.520;11.284;2023-05-07T13:27:33;3.80;;;3.50;;
15931;SDS011;8065;49.520;11.284;2023-05-07T13:30:01;3.80;;;3.50;;
15931;SDS011;8065;49.520;11.284;2023-05-07T13:32:29;4.10;;;3.80;;
15931;SDS011;8065;49.520;11.284;2023-05-07T13:34:57;4.30;;;4.00;;
15931;SDS011;8065;49.520;11.284;2023-05-07T13:37:24;3.80;;;3.50;;
15931;SDS011;8065;49.520;11.284;2023-05-07T13:39:50;5.13;;;4.00;;
15931;SDS011;8065;49.520;11.284;2023-05-07T13:42:17;4.03;;;3.60;;
15931;SDS011;8065;49.520;11.284;2023-05-07T13:44:43;3.57;;;3.37;;
15931;SDS011;8065;49.520;11.284;2023-05-07T13:47:10;4.27;;;3.50;;
15931;SDS011;8065;49.520;11.284;2023-05-07T13:49:36;4.40;;;4.00;;
15931;SDS011;8065;49.520;11.284;2023-05-07T13:52:04;5.00;;;3.90;;
15931;SDS011;8065;49.520;11.284;2023-05-07T13:54:31;6.30;;;3.80;;
15931;SDS011;8065;49.520;11.284;2023-05-07T13:56:57;4.40;;;4.00;;
15931;SDS011;8065;49.520;11.284;2023-05-07T13:59:24;4.03;;;3.73;;
15931;SDS011;8065;49.520;11.284;2023-05-07T14:01:50;4.03;;;3.47;;
15931;SDS011;8065;49.520;11.284;2023-05-07T14:04:16;4.07;;;3.67;;
15931;SDS011;8065;49.520;11.284;2023-05-07T14:06:43;4.20;;;3.90;;
15931;SDS011;8065;49.520;11.284;2023-05-07T14:09:11;4.10;;;3.80;;
15931;SDS011;8065;49.520;11.284;2023-05-07T14:11:38;6.07;;;3.80;;
15931;SDS011;8065;49.520;11.284;2023-05-07T14:14:04;7.67;;;5.90;;
15931;SDS011;8065;49.520;11.284;2023-05-07T14:16:31;17.50;;;10.20;;
15931;SDS011;8065;49.520;11.284;2023-05-07T14:18:57;4.63;;;4.23;;
15931;SDS011;8065;49.520;11.284;2023-05-07T14:21:24;5.03;;;4.43;;
15931;SDS011;8065;49.520;11.284;2023-05-07T14:23:50;9.53;;;8.53;;
15931;SDS011;8065;49.520;11.284;2023-05-07T14:26:18;4.50;;;4.20;;
15931;SDS011;8065;49.520;11.284;2023-05-07T14:28:45;3.80;;;3.60;;
15931;SDS011;8065;49.520;11.284;2023-05-07T14:31:12;4.20;;;3.90;;
15931;SDS011;8065;49.520;11.284;2023-05-07T14:33:38;3.87;;;3.57;;
15931;SDS011;8065;49.520;11.284;2023-05-07T14:36:05;4.03;;;3.70;;
15931;SDS011;8065;49.520;11.284;2023-05-07T14:38:32;4.03;;;3.63;;
15931;SDS011;8065;49.520;11.284;2023-05-07T14:40:58;3.47;;;3.17;;
15931;SDS011;8065;49.520;11.284;2023-05-07T14:43:27;4.03;;;3.63;;
15931;SDS011;8065;49.520;11.284;2023-05-07T14:45:53;3.63;;;3.20;;
15931;SDS011;8065;49.520;11.284;2023-05-07T14:48:20;6.23;;;3.90;;
15931;SDS011;8065;49.520;11.284;2023-05-07T14:50:46;3.93;;;3.53;;
15931;SDS011;8065;49.520;11.284;2023-05-07T14:53:13;5.03;;;3.80;;